Terminal Aerodrome Forecast
Issued by NWS Cleveland, OH

Home | Current Version | Previous Version | Graphics & Text | Print | Product List | Glossary Off
Versions: 1 2 3 4 5 6 7 8 9 10 11 12 13 14 15 16 17 18 19 20 21 22 23 24

420
FTUS41 KCLE 302128 AAA
TAFYNG
TAF AMD
KYNG 302128Z 3021/0118 10010KT 5SM -RA BKN015 OVC025
      TEMPO 3021/3024 2SM RA BR BKN025
     FM010000 09012KT P6SM OVC008
     FM010500 10007KT 6SM -SHRA OVC012
     FM011100 12007KT 4SM BR BKN007 OVC012
     FM011500 15010KT P6SM BKN012 BKN025=

USA.gov is the U.S. government's official web portal to all federal, state and local government web resources and services.